Weather observations for the past three days for
Ephraim-Gibraltar Airport
Metric (Imperial)
Date Time (cdt) Wind (kph) Vis. (km) Weather Sky Cond. Temperature (ºC) Relative Humidity Wind Chill (°C) Heat Index (°C) Pressure Precipitation (cm)
Air Dwpt 6 hour altimeter (cm) sea level (mb) 1 hr 3 hr 6 hr
Max. Min.
04 22:30 Calm 16.09 Overcast BKN050 OVC070 18.7 18.2 97% 76.15 0.0
04 22:15 Calm 16.09 Mostly Cloudy SCT055 BKN070 18.7 18.2 97% 76.15 0.0
04 21:55 E 7 16.09 Partly Cloudy SCT070 18.7 18.1 96% 76.15 0.0
04 21:35 NE 9 16.09 Partly Cloudy SCT065 18.7 18.2 97% 76.15 0.0
04 21:15 E 6 16.09 Mostly Cloudy BKN013 BKN044 BKN065 18.9 18.3 96% 76.15 0.0
04 20:55 NE 7 16.09 Overcast BKN013 OVC040 19 18.5 97% 76.15 0.0
04 20:35 E 9 16.09 Overcast BKN006 OVC011 19.2 18.7 97% 76.15 0.0
04 20:15 E 7 16.09 Overcast BKN008 BKN013 OVC034 19.4 18.8 96% 76.15 0.0
04 19:55 E 13 16.09 Overcast BKN006 OVC013 19.6 19 96% 76.15 0.0
04 19:35 NE 7 16.09 Rain OVC006 19.7 19.2 97% 76.15 0.0
04 19:15 E 7 16.09 Light Rain OVC006 20 19.4 96% 76.12 0.0
04 18:55 E 7 16.09 Overcast OVC006 20.1 19.5 22.6 20.1 96% 76.12 0.0 0.03
04 18:35 E 13 16.09 Overcast OVC006 20.2 19.7 97% 76.1 0.0
04 18:15 E 9 16.09 Overcast OVC006 20.5 20 97% 76.1 0.0
04 17:55 E 11 16.09 Overcast BKN008 OVC013 21 20.5 97% 76.07 0.0 0.03
04 17:35 E 7 16.09 Overcast BKN011 OVC015 21.3 20.4 95% 76.07 0.0 0.03
04 17:15 E 9 16.09 Overcast BKN010 OVC017 21.6 20.1 91% 76.05 0.0
04 16:55 E 7 16.09 Overcast OVC012 22 20.1 89% 76.02 0.0
04 16:35 SE 9 16.09 Overcast BKN012 OVC021 22 19.8 87% 76.02 0.0
04 16:15 E 11 16.09 Overcast OVC021 22.2 19.7 86% 76.02 0.0
04 15:55 SE 6 16.09 Overcast OVC021 22.2 19.7 86% 76.02 0.0
04 15:35 SE 7 16.09 Overcast SCT010 OVC021 22 19.7 87% 76.05 0.0
04 15:15 SE 6 16.09 Overcast SCT010 OVC021 22 19.6 86% 76.05 0.0
04 14:55 SE 7 16.09 Overcast OVC024 22.2 19.6 85% 76.07 0.0
04 14:35 SE 6 16.09 Overcast OVC018 21.6 19.4 87% 76.07 0.0
04 14:15 S 6 16.09 Overcast OVC014 21.4 19.3 88% 76.07 0.0
04 13:55 SE 6 16.09 Overcast OVC014 21.8 19.2 85% 76.05 0.0
04 13:35 Calm 16.09 Overcast OVC014 22 19.5 86% 76.05 0.0
04 13:15 Calm 16.09 Overcast OVC014 22 19.9 88% 76.02 0.0
04 12:55 N 6 16.09 Overcast OVC014 22.6 19.8 23.9 19.5 84% 76.02 0.0
04 12:35 Calm 16.09 Overcast OVC014 23.5 20.2 82% 76.02 0.0
04 12:15 S 7 16.09 Overcast OVC014 22.6 19.8 84% 76.05 0.0
04 11:55 Calm 16.09 Overcast BKN014 OVC019 22.8 19.8 83% 76.05 0.0
04 11:35 Calm 16.09 Overcast BKN012 OVC020 22.9 20.1 84% 76.05 0.0
04 11:15 SE 6 16.09 Overcast OVC012 21.7 20 90% 76.07 0.0
04 10:55 Calm 16.09 Overcast BKN014 OVC036 22.1 19.6 86% 76.05 0.0
04 10:35 Calm 16.09 Overcast OVC014 21.9 19.8 88% 76.05 0.0
04 10:15 Calm 16.09 Overcast BKN010 OVC041 21.8 19.6 87% 76.05 0.0
04 09:55 Calm 16.09 Overcast SCT008 OVC041 21.6 19.7 89% 76.05 0.0
04 09:35 Calm 16.09 Mostly Cloudy BKN008 BKN014 21.6 20 91% 76.02 0.0
04 09:15 S 6 16.09 Mostly Cloudy SCT008 BKN014 BKN020 21 20 94% 76.05 0.0
04 08:55 Calm 16.09 Overcast BKN008 BKN012 OVC020 20.6 20.1 97% 76.07 0.0
04 08:35 Calm 16.09 Overcast BKN006 BKN011 OVC020 20.6 20 96% 76.07 0.0
04 08:15 S 7 16.09 Overcast OVC005 20.5 20 97% 76.07 0.0
04 07:55 S 7 11.27 Overcast BKN003 OVC012 20.3 19.7 96% 76.05 0.0
04 07:15 S 6 16.09 Overcast SCT003 OVC014 19.7 19.1 96% 76.02 0.0
04 06:55 SE 7 16.09 Overcast OVC020 19.4 18.8 19.5 18.5 96% 76.02 0.0
04 06:35 SE 6 16.09 Overcast SCT008 BKN022 OVC044 19.2 18.7 97% 76 0.0
04 06:15 SE 9 16.09 Overcast BKN008 BKN026 OVC044 19.1 18.5 96% 75.97 0.0
04 05:55 SE 7 16.09 Overcast OVC008 19 18.3 96% 76.02 0.0
04 05:35 E 7 16.09 Overcast OVC008 19 18.3 96% 76.02 0.0
04 05:15 E 9 16.09 Overcast OVC008 19 18.5 97% 76.02 0.0
04 04:55 N 13 16.09 Overcast BKN006 OVC012 19 18.5 97% 76.12 0.0
04 04:35 N 6 16.09 Overcast BKN006 BKN012 OVC024 19.2 18.7 97% 76.12 0.0
04 04:15 NE 6 16.09 Overcast BKN004 OVC010 19.3 18.8 97% 76.07 0.0
04 03:55 Calm 16.09 Overcast OVC004 19.3 18.8 97% 76.1 0.0
04 03:35 E 11 16.09 Overcast OVC004 19.2 18.7 97% 76 0.0
04 03:15 S 6 16.09 Overcast BKN004 OVC090 19 18.5 97% 76.02 0.0
04 02:55 SE 6 16.09 Mostly Cloudy BKN100 BKN110 18.9 18.3 96% 76 0.0
04 02:35 E 9 16.09 Overcast SCT023 OVC100 19 18.5 97% 76 0.0
04 02:15 SE 6 16.09 Mostly Cloudy SCT023 BKN110 18.7 18.2 97% 76 0.0
04 01:55 SE 7 16.09 Partly Cloudy SCT120 18.8 18.2 96% 76.02 0.0
04 01:35 SE 7 16.09 Partly Cloudy SCT026 18.9 18.3 96% 76.02 0.0
04 01:15 SE 9 16.09 Mostly Cloudy BKN026 18.7 18.1 96% 76.05 0.0
04 00:55 SE 6 16.09 Light Rain BKN026 18.5 18 19.4 17.5 97% 76.07 0.0
04 00:35 SE 9 16.09 Fair CLR 18.2 17.7 97% 76.05 0.0
04 00:15 E 7 16.09 Fair CLR 18.3 17.8 97% 76.1 0.0
03 23:55 SE 7 16.09 Fair CLR 18 17.5 97% 76.07 0.0
03 23:35 E 6 16.09 Fair CLR 18 17.5 97% 76.1 0.0
03 23:15 E 7 16.09 Fair CLR 18.1 17.3 95% 76.1 0.0
03 22:55 SE 9 16.09 Fair CLR 17.7 16.8 95% 76.1 0.0
03 22:35 Calm 16.09 Fair CLR 17.8 16.7 93% 76.15 0.0
03 22:15 SE 6 16.09 Fair CLR 17.7 16.6 93% 76.12 0.0
03 21:55 E 7 16.09 Mostly Cloudy SCT100 BKN120 17.5 17 97% 76.12 0.0
03 21:35 Calm 16.09 Mostly Cloudy BKN110 18 17.2 95% 76.15 0.0
03 21:15 Calm 11.27 Mostly Cloudy SCT100 BKN120 18.6 17 90% 76.12 0.0
03 20:55 Calm 16.09 Partly Cloudy SCT100 18.6 17.3 92% 76.1 0.0
03 20:35 Calm 16.09 Fair CLR 17.6 17.1 97% 76.1 0.0
03 20:15 Calm 16.09 Partly Cloudy SCT100 18.2 17.7 97% 76.12 0.0
03 19:55 Calm 16.09 Fair CLR 18.5 17.9 96% 76.07 0.0
03 19:35 E 7 16.09 Fair CLR 18.2 17.6 96% 76.05 0.0
03 19:15 Calm 16.09 Fair CLR 18.5 18 97% 76.07 0.0
03 18:55 Calm 16.09 Fair CLR 19.5 17.9 22.3 18.5 91% 76.1 0.0
03 18:35 E 7 16.09 Fair CLR 20 18 88% 76.07 0.0
03 18:15 E 6 16.09 Fair CLR 20 17.8 87% 76.07 0.0
03 17:55 E 6 16.09 Fair CLR 20.2 17.7 86% 76.07 0.0
03 17:35 SE 7 16.09 Fair CLR 20.2 17.6 85% 76.02 0.0
03 17:15 NE 6 16.09 Fair CLR 20.5 17.5 83% 76.02 0.0
03 16:55 E 9 16.09 Fair CLR 20.8 17.4 81% 76 0.0
03 16:35 E 11 16.09 Fair CLR 21 17.1 79% 76.02 0.0
03 16:15 E 11 16.09 Mostly Cloudy SCT015 BKN038 21.4 17.2 77% 76.02 0.0
03 15:55 E 7 16.09 Mostly Cloudy BKN038 21.5 17.3 77% 76.07 0.0
03 15:35 E 7 16.09 Fair CLR 21.9 16.6 72% 76.05 0.0
03 15:15 E 7 16.09 Fair CLR 22.2 16.7 71% 76.05 0.0
03 14:55 E 7 16.09 Fair CLR 22.1 17.2 74% 76.07 0.0
03 14:35 E 15 16.09 Fair CLR 21.9 17.5 76% 76.05 0.0
03 14:15 E 13 G 28 16.09 Fair CLR 20.7 18.1 85% 76.02 0.0
03 13:55 E 11 16.09 Fair CLR 19.7 18.3 92% 76.05 0.0
03 13:35 E 13 16.09 Partly Cloudy SCT070 SCT085 19.2 18.2 94% 76.02 0.0
03 13:15 E 13 16.09 Mostly Cloudy SCT028 SCT070 BKN110 18.9 18.4 97% 76.02 0.0
03 12:55 E 13 11.27 Light Rain SCT030 BKN046 BKN070 18.6 18 21.2 18.2 96% 76.07 0.0
03 12:35 Calm 16.09 Overcast SCT017 SCT038 OVC048 18.4 17.8 96% 76.15 0.0
03 12:15 SE 6 16.09 Overcast BKN017 OVC040 18.5 17.3 93% 76.15 0.0
03 11:55 SE 6 16.09 Light Rain SCT011 OVC017 18.5 17.9 96% 76.15 0.0
03 11:35 Calm 8.05 Light Rain BKN009 OVC030 18.2 17.5 96% 76.12 0.0
03 11:15 Calm 4.83 Rain SCT009 OVC031 19.3 18.7 96% 76.15 0.0
03 10:55 E 6 16.09 Light Rain BKN031 OVC037 19.7 19 96% 76.1 0.0
03 10:35 E 11 16.09 Overcast OVC038 20.2 18.1 88% 76.07 0.0
03 10:15 E 11 16.09 Mostly Cloudy SCT009 BKN038 BKN060 20.6 17.7 84% 76.05 0.0
03 09:55 E 17 16.09 Mostly Cloudy SCT009 SCT040 BKN046 21.1 18.7 86% 76.02 0.0
03 09:35 E 11 16.09 Overcast SCT009 OVC041 20.8 19.2 91% 76.05 0.0
03 09:15 E 13 16.09 Overcast SCT009 OVC039 20.5 19.2 92% 76.07 0.0
03 08:55 E 13 16.09 Overcast BKN009 OVC039 20.6 19.1 91% 76.05 0.0
03 08:35 SE 13 16.09 Overcast SCT009 BKN039 OVC060 20.6 19.1 91% 76.05 0.0
03 08:15 SE 11 16.09 Overcast SCT029 BKN046 OVC060 20.5 19.5 94% 76.05 0.0
03 07:55 E 9 16.09 Overcast OVC029 20.1 19.6 97% 76.07 0.0
03 07:35 SE 7 16.09 Overcast BKN029 OVC039 19.7 19.2 97% 76.07 0.0
03 07:15 E 7 16.09 Overcast BKN029 OVC039 19.5 19 97% 76.07 0.0
03 06:55 E 9 16.09 Overcast OVC029 19.5 18.8 19.5 18.6 96% 76.07 0.0
03 06:35 SE 7 16.09 Overcast OVC029 19.2 18.7 97% 76.07 0.0
03 06:15 E 9 16.09 Overcast OVC029 19 18.5 97% 76.05 0.0
03 05:55 E 7 16.09 Overcast OVC029 19 18.3 96% 76.05 0.0
03 05:35 E 6 16.09 Overcast BKN029 BKN034 OVC048 18.8 18.2 96% 76.05 0.0
03 05:15 Calm 16.09 Overcast SCT031 BKN043 OVC048 18.7 18.2 97% 76.05 0.0
03 04:55 E 6 16.09 Overcast BKN031 OVC043 19 18.3 96% 76.05 0.0
03 04:35 E 6 16.09 Overcast BKN031 OVC043 18.8 18.2 96% 76.05 0.0
03 04:15 E 7 16.09 Overcast OVC031 18.7 18.2 97% 76.02 0.0
03 03:55 Calm 16.09 Overcast OVC031 18.7 18.2 97% 76.02 0.0
03 03:35 E 6 16.09 Mostly Cloudy BKN031 18.9 18.3 96% 76.02 0.0
03 03:15 Calm 16.09 Partly Cloudy SCT033 SCT046 SCT050 18.8 18.2 96% 76.02 0.0
03 02:55 Calm 16.09 Mostly Cloudy SCT033 BKN046 19 18.5 97% 76.05 0.0
03 02:35 NE 6 16.09 Partly Cloudy SCT046 18.9 18.3 96% 76.02 0.0
03 02:15 E 6 16.09 Fair CLR 18.8 18.2 96% 76.02 0.0
03 01:55 Calm 16.09 Fair CLR 18.8 18.3 97% 76.02 0.0
03 01:35 Calm 16.09 Partly Cloudy SCT120 18.8 18.3 97% 76.02 0.0
03 01:15 E 6 16.09 Partly Cloudy SCT110 18.7 18.1 96% 76.02 0.0
03 00:55 E 6 16.09 Partly Cloudy SCT120 18.7 18.2 21.8 18.1 97% 76.02 0.0
03 00:35 E 6 16.09 Fair CLR 18.6 18.1 97% 76.02 0.0
03 00:15 E 9 16.09 Fair CLR 18.4 17.9 97% 76 0.0
02 23:55 Calm 16.09 Fair CLR 18.5 17.9 96% 76 0.0
02 23:35 NE 7 16.09 Fair CLR 18.7 18 96% 76.02 0.0
02 23:15 Calm 16.09 Fair CLR 18.9 18.3 96% 76 0.0
02 22:55 SW 6 16.09 Fair CLR 19 18.5 97% 75.97 0.0
02 22:35 S 7 16.09 Fair CLR 19 18.5 97% 76 0.0
02 22:15 S 7 16.09 Fair CLR 19.1 18.5 96% 75.97 0.0
02 21:55 S 7 16.09 Fair CLR 19.1 18.5 96% 75.97 0.0
02 21:35 S 7 16.09 Fair CLR 19.1 18.5 96% 75.97 0.0
02 21:15 S 7 16.09 Fair CLR 19.1 18.3 95% 75.97 0.0
02 20:55 S 7 16.09 Fair CLR 19 18.1 95% 75.97 0.0
02 20:35 S 7 16.09 Fair CLR 19 18.3 96% 75.95 0.0
02 20:15 S 6 16.09 Fair CLR 19 18.4 96% 75.95 0.0
02 19:55 Calm 16.09 Fair CLR 19.4 18.2 93% 75.92 0.0
02 19:35 Calm 16.09 Fair CLR 19.8 18.3 91% 75.92 0.0
02 19:15 Calm 16.09 Fair CLR 20.7 18.3 86% 75.92 0.0
02 18:55 SE 6 16.09 Fair CLR 21.9 17.5 25.6 21.9 76% 75.92 0.0
02 18:35 SE 6 16.09 Fair CLR 23 17.3 70% 75.95 0.0
02 18:15 SE 6 16.09 Fair CLR 23.8 17.2 67% 75.92 0.0
02 17:55 Calm 16.09 Fair CLR 24.9 16.6 60% 26 75.92 0.0
02 17:35 Calm 16.09 Fair CLR 25.4 15.5 54% 26 75.92 0.0
02 17:15 W 6 16.09 Fair CLR 25.4 15.6 55% 26 75.95 0.0
02 16:55 W 6 16.09 Fair CLR 25.4 15.7 55% 26 75.95 0.0
02 16:35 Calm 16.09 Fair CLR 25.3 15.7 55% 26 75.95 0.0
02 16:15 Calm 16.09 Fair CLR 25.2 15.8 56% 26 75.95 0.0
02 15:55 Calm 16.09 Fair CLR 24.8 15.5 56% 26 75.95 0.0
02 15:35 W 7 16.09 Fair CLR 24.3 15.4 58% 25 75.97 0.0
02 15:15 Calm 16.09 Fair CLR 24.8 14.7 54% 26 75.97 0.0
02 14:55 W 6 16.09 Fair CLR 24.8 14.4 52% 26 75.97 0.0
02 14:35 SW 9 16.09 Fair CLR 24.7 13.9 51% 26 75.97 0.0
02 14:15 SW 11 16.09 Fair CLR 24.4 13.7 51% 26 76 0.0
02 13:55 W 6 16.09 Fair CLR 24.6 14 52% 26 76 0.0
02 13:35 W 7 16.09 Fair CLR 24.5 14.3 53% 26 76 0.0
02 13:15 W 9 16.09 Fair CLR 23.8 14.2 55% 76.02 0.0
02 12:55 W 7 16.09 Fair CLR 23.8 14.8 23.8 17.2 57% 76.02 0.0
02 12:35 SW 7 16.09 Fair CLR 23.3 15.3 61% 76.02 0.0
02 12:15 Calm 16.09 Fair CLR 22.8 16 66% 76.02 0.0
02 11:55 Calm 16.09 Fair CLR 22.8 16.6 68% 76.05 0.0
02 11:35 W 6 16.09 Fair CLR 22 16.9 73% 76.02 0.0
02 11:15 Calm 16.09 Partly Cloudy SCT015 SCT023 21.8 17.5 77% 76.02 0.0
02 10:55 Calm 16.09 Partly Cloudy SCT013 SCT018 21.3 17.4 79% 76.05 0.0
02 10:35 Calm 16.09 Partly Cloudy SCT011 21.1 18.3 84% 76 0.0
02 10:15 Calm 16.09 Partly Cloudy SCT005 19.9 18.4 91% 75.97 0.0
02 09:55 Calm 16.09 Fair CLR 18.7 18.1 96% 76.05 0.0
02 09:35 W 7 16.09 Fair CLR 18.8 18.2 96% 76.05 0.0
02 09:15 Calm 16.09 Fair CLR 18.7 18.2 97% 76.05 0.0
02 08:55 Calm 16.09 Light Drizzle SCT110 18.3 17.8 97% 76.1 0.0
02 08:35 Calm 16.09 Light Rain SCT039 SCT049 SCT060 18 17.5 97% 76.07 0.0
02 08:15 W 6 16.09 Partly Cloudy SCT110 17.9 17.2 96% 76.07 0.0
02 07:55 W 7 16.09 Fair CLR 17.5 17 97% 76.05 0.0
02 07:35 SW 11 16.09 Partly Cloudy SCT110 17.4 16.9 97% 76.02 0.0
02 07:15 SE 11 16.09 Light Rain SCT080 BKN110 17.3 16.8 97% 75.84 0.0
02 06:55 E 11 16.09 Light Rain OVC095 17.5 17 22.6 17.5 97% 75.87 0.0
02 06:35 NW 6 11.27 Heavy Rain SCT075 BKN085 OVC110 18.2 17.7 97% 76.15 0.0
02 06:15 W 11 11.27 Rain OVC100 18.7 17.5 93% 76.23 0.0
02 05:55 W 15 16.09 Rain OVC110 19.5 16.8 84% 76.2 0.0
02 05:35 W 11 16.09 Mostly Cloudy SCT100 BKN120 19.8 18.4 92% 76.12 0.0
02 05:15 W 7 16.09 Partly Cloudy SCT120 19.2 16.4 84% 76.02 0.0
02 04:55 Calm 16.09 Fair CLR 18.2 16 87% 75.97 0.0
02 04:35 Calm 16.09 Fair CLR 17.9 16.7 93% 75.97 0.0
02 04:15 Calm 16.09 Fair CLR 18 16.6 92% 75.97 0.0
02 03:55 Calm 16.09 Fair CLR 18.1 16.6 91% 75.97 0.0
02 03:35 Calm 16.09 Fair CLR 17.7 16.8 95% 75.97 0.0
02 03:15 Calm 16.09 Fair CLR 18.1 17.2 95% 75.97 0.0
02 02:55 Calm 16.09 Fair CLR 19.5 16.8 84% 75.97 0.0
02 02:35 Calm 16.09 Fair CLR 20.9 16.3 75% 75.95 0.0
02 02:15 N 6 16.09 Fair CLR 21 16.1 74% 75.97 0.0
02 01:55 N 7 16.09 Fair CLR 21.2 15.6 71% 75.97 0.0
02 01:35 N 7 16.09 Fair CLR 21.6 15.2 67% 75.97 0.0
02 01:15 N 9 16.09 Fair CLR 22.3 14.5 61% 75.95 0.0
02 00:55 N 11 16.09 Fair CLR 22.6 14.9 25.6 22.1 62% 75.95 0.0
02 00:35 N 11 16.09 Fair CLR 23 16.3 66% 75.92 0.0
02 00:15 NW 9 16.09 Fair CLR 23.7 17.7 69% 75.92 0.0
01 23:55 W 13 16.09 Fair CLR 24.1 18.9 73% 25 75.95 0.0
01 23:35 W 6 16.09 Fair CLR 23.7 21.1 85% 75.92 0.0
01 23:15 W 7 16.09 Fair CLR 23.6 21 85% 75.92 0.0
Date Time (cdt) Wind (kph) Vis. (km) Weather Sky Cond. Air Dwpt Max. Min. Relative Humidity Wind Chill (°C) Heat Index (°C) altimeter (cm) sea level (mb) 1 hr 3 hr 6 hr
6 hour
Temperature (ºC) Pressure Precipitation (cm)